sensor_id;sensor_type;location;lat;lon;timestamp;P1;durP1;ratioP1;P2;durP2;ratioP2
70426;SDS011;57872;55.432;37.248;2023-07-28T00:00:49;28.17;;;16.58;;
70426;SDS011;57872;55.432;37.248;2023-07-28T00:05:50;22.13;;;14.20;;
70426;SDS011;57872;55.432;37.248;2023-07-28T00:10:51;26.40;;;15.73;;
70426;SDS011;57872;55.432;37.248;2023-07-28T00:15:56;27.13;;;18.13;;
70426;SDS011;57872;55.432;37.248;2023-07-28T00:20:57;22.35;;;16.45;;
70426;SDS011;57872;55.432;37.248;2023-07-28T00:25:58;30.00;;;18.38;;
70426;SDS011;57872;55.432;37.248;2023-07-28T00:30:58;27.42;;;16.08;;
70426;SDS011;57872;55.432;37.248;2023-07-28T00:36:03;25.40;;;17.88;;
70426;SDS011;57872;55.432;37.248;2023-07-28T00:41:09;27.40;;;18.75;;
70426;SDS011;57872;55.432;37.248;2023-07-28T00:46:10;25.83;;;16.63;;
70426;SDS011;57872;55.432;37.248;2023-07-28T00:51:14;31.33;;;18.05;;
70426;SDS011;57872;55.432;37.248;2023-07-28T00:56:18;28.00;;;17.77;;
70426;SDS011;57872;55.432;37.248;2023-07-28T01:01:19;24.65;;;15.68;;
70426;SDS011;57872;55.432;37.248;2023-07-28T01:11:45;25.17;;;18.20;;
70426;SDS011;57872;55.432;37.248;2023-07-28T01:16:58;32.08;;;18.73;;
70426;SDS011;57872;55.432;37.248;2023-07-28T01:27:44;28.13;;;18.27;;
70426;SDS011;57872;55.432;37.248;2023-07-28T01:32:45;33.45;;;20.15;;
70426;SDS011;57872;55.432;37.248;2023-07-28T01:37:58;29.90;;;19.23;;
70426;SDS011;57872;55.432;37.248;2023-07-28T01:43:53;27.02;;;15.95;;
70426;SDS011;57872;55.432;37.248;2023-07-28T01:48:49;26.25;;;15.85;;
70426;SDS011;57872;55.432;37.248;2023-07-28T01:53:53;24.17;;;15.75;;
70426;SDS011;57872;55.432;37.248;2023-07-28T01:58:54;29.52;;;19.45;;
70426;SDS011;57872;55.432;37.248;2023-07-28T02:04:15;35.92;;;20.08;;
70426;SDS011;57872;55.432;37.248;2023-07-28T02:09:24;21.25;;;15.55;;
70426;SDS011;57872;55.432;37.248;2023-07-28T02:14:34;22.42;;;14.98;;
70426;SDS011;57872;55.432;37.248;2023-07-28T02:19:35;21.45;;;15.57;;
70426;SDS011;57872;55.432;37.248;2023-07-28T02:24:47;25.73;;;17.30;;
70426;SDS011;57872;55.432;37.248;2023-07-28T02:29:48;22.63;;;15.05;;
70426;SDS011;57872;55.432;37.248;2023-07-28T02:35:47;21.85;;;15.38;;
70426;SDS011;57872;55.432;37.248;2023-07-28T02:40:57;24.52;;;17.05;;
70426;SDS011;57872;55.432;37.248;2023-07-28T02:46:10;24.52;;;16.02;;
70426;SDS011;57872;55.432;37.248;2023-07-28T02:51:48;29.15;;;19.92;;
70426;SDS011;57872;55.432;37.248;2023-07-28T02:57:37;23.63;;;15.38;;
70426;SDS011;57872;55.432;37.248;2023-07-28T03:03:02;22.08;;;15.77;;
70426;SDS011;57872;55.432;37.248;2023-07-28T03:15:07;28.15;;;18.55;;
70426;SDS011;57872;55.432;37.248;2023-07-28T03:25:59;27.70;;;17.95;;
70426;SDS011;57872;55.432;37.248;2023-07-28T03:31:00;26.63;;;17.90;;
70426;SDS011;57872;55.432;37.248;2023-07-28T03:36:04;35.38;;;20.63;;
70426;SDS011;57872;55.432;37.248;2023-07-28T03:41:13;28.58;;;18.27;;
70426;SDS011;57872;55.432;37.248;2023-07-28T03:46:41;32.25;;;19.85;;
70426;SDS011;57872;55.432;37.248;2023-07-28T03:52:02;27.48;;;17.05;;
70426;SDS011;57872;55.432;37.248;2023-07-28T03:57:39;38.20;;;21.90;;
70426;SDS011;57872;55.432;37.248;2023-07-28T04:03:19;55.90;;;19.98;;
70426;SDS011;57872;55.432;37.248;2023-07-28T04:08:21;30.63;;;17.52;;
70426;SDS011;57872;55.432;37.248;2023-07-28T04:14:01;26.67;;;17.58;;
70426;SDS011;57872;55.432;37.248;2023-07-28T04:19:38;36.17;;;21.90;;
70426;SDS011;57872;55.432;37.248;2023-07-28T04:24:47;24.23;;;18.57;;
70426;SDS011;57872;55.432;37.248;2023-07-28T04:29:49;41.15;;;22.00;;
70426;SDS011;57872;55.432;37.248;2023-07-28T04:34:57;35.65;;;21.08;;
70426;SDS011;57872;55.432;37.248;2023-07-28T04:40:44;41.85;;;21.88;;
70426;SDS011;57872;55.432;37.248;2023-07-28T04:45:47;36.38;;;22.02;;
70426;SDS011;57872;55.432;37.248;2023-07-28T04:50:59;33.25;;;20.30;;
70426;SDS011;57872;55.432;37.248;2023-07-28T04:56:28;23.95;;;15.93;;
70426;SDS011;57872;55.432;37.248;2023-07-28T05:01:37;30.88;;;20.48;;
70426;SDS011;57872;55.432;37.248;2023-07-28T05:06:41;30.25;;;20.90;;
70426;SDS011;57872;55.432;37.248;2023-07-28T05:11:45;26.40;;;18.20;;
70426;SDS011;57872;55.432;37.248;2023-07-28T05:16:55;33.03;;;18.67;;
70426;SDS011;57872;55.432;37.248;2023-07-28T05:22:19;26.48;;;17.35;;
70426;SDS011;57872;55.432;37.248;2023-07-28T05:27:25;24.67;;;17.02;;
70426;SDS011;57872;55.432;37.248;2023-07-28T05:32:28;23.88;;;16.60;;
70426;SDS011;57872;55.432;37.248;2023-07-28T05:38:44;20.45;;;15.25;;
70426;SDS011;57872;55.432;37.248;2023-07-28T05:43:48;22.48;;;15.43;;
70426;SDS011;57872;55.432;37.248;2023-07-28T05:48:49;22.60;;;16.55;;
70426;SDS011;57872;55.432;37.248;2023-07-28T05:53:53;22.00;;;15.68;;
70426;SDS011;57872;55.432;37.248;2023-07-28T05:59:13;23.77;;;16.50;;
70426;SDS011;57872;55.432;37.248;2023-07-28T06:04:43;26.23;;;17.48;;
70426;SDS011;57872;55.432;37.248;2023-07-28T06:09:53;20.77;;;15.52;;
70426;SDS011;57872;55.432;37.248;2023-07-28T06:15:04;22.45;;;15.98;;
70426;SDS011;57872;55.432;37.248;2023-07-28T06:20:22;23.38;;;16.30;;
70426;SDS011;57872;55.432;37.248;2023-07-28T06:25:37;34.80;;;20.20;;
70426;SDS011;57872;55.432;37.248;2023-07-28T06:30:52;29.80;;;18.45;;
70426;SDS011;57872;55.432;37.248;2023-07-28T06:36:21;25.73;;;16.00;;
70426;SDS011;57872;55.432;37.248;2023-07-28T06:41:22;24.63;;;15.18;;
70426;SDS011;57872;55.432;37.248;2023-07-28T06:46:29;20.73;;;14.32;;
70426;SDS011;57872;55.432;37.248;2023-07-28T06:51:31;24.27;;;14.90;;
70426;SDS011;57872;55.432;37.248;2023-07-28T06:56:38;22.95;;;12.68;;
70426;SDS011;57872;55.432;37.248;2023-07-28T07:01:39;28.38;;;18.35;;
70426;SDS011;57872;55.432;37.248;2023-07-28T07:06:49;21.48;;;13.90;;
70426;SDS011;57872;55.432;37.248;2023-07-28T07:12:22;27.55;;;15.75;;
70426;SDS011;57872;55.432;37.248;2023-07-28T07:17:26;22.83;;;13.20;;
70426;SDS011;57872;55.432;37.248;2023-07-28T07:22:56;26.98;;;12.75;;
70426;SDS011;57872;55.432;37.248;2023-07-28T07:28:26;25.30;;;15.15;;
70426;SDS011;57872;55.432;37.248;2023-07-28T07:33:38;19.17;;;12.55;;
70426;SDS011;57872;55.432;37.248;2023-07-28T07:39:06;20.13;;;14.80;;
70426;SDS011;57872;55.432;37.248;2023-07-28T07:44:27;19.27;;;13.07;;
70426;SDS011;57872;55.432;37.248;2023-07-28T07:49:28;20.60;;;14.20;;
70426;SDS011;57872;55.432;37.248;2023-07-28T07:54:39;24.13;;;16.35;;
70426;SDS011;57872;55.432;37.248;2023-07-28T07:59:55;23.60;;;15.63;;
70426;SDS011;57872;55.432;37.248;2023-07-28T08:04:58;20.27;;;13.82;;
70426;SDS011;57872;55.432;37.248;2023-07-28T08:09:59;29.52;;;15.95;;
70426;SDS011;57872;55.432;37.248;2023-07-28T08:15:00;25.08;;;16.65;;
70426;SDS011;57872;55.432;37.248;2023-07-28T08:20:08;20.08;;;14.02;;
70426;SDS011;57872;55.432;37.248;2023-07-28T08:25:16;21.02;;;15.02;;
70426;SDS011;57872;55.432;37.248;2023-07-28T08:31:08;26.13;;;17.45;;
70426;SDS011;57872;55.432;37.248;2023-07-28T08:36:15;24.63;;;16.20;;
70426;SDS011;57872;55.432;37.248;2023-07-28T08:46:39;25.33;;;16.90;;
70426;SDS011;57872;55.432;37.248;2023-07-28T08:51:42;28.92;;;17.92;;
70426;SDS011;57872;55.432;37.248;2023-07-28T08:56:53;21.75;;;14.80;;
70426;SDS011;57872;55.432;37.248;2023-07-28T09:01:57;21.25;;;14.38;;
70426;SDS011;57872;55.432;37.248;2023-07-28T09:07:04;19.52;;;12.63;;
70426;SDS011;57872;55.432;37.248;2023-07-28T09:12:05;23.10;;;12.70;;
70426;SDS011;57872;55.432;37.248;2023-07-28T09:17:10;24.40;;;14.47;;
70426;SDS011;57872;55.432;37.248;2023-07-28T09:22:17;18.20;;;12.60;;
70426;SDS011;57872;55.432;37.248;2023-07-28T09:27:27;25.00;;;15.30;;
70426;SDS011;57872;55.432;37.248;2023-07-28T09:32:32;22.92;;;15.85;;
70426;SDS011;57872;55.432;37.248;2023-07-28T09:38:20;29.23;;;15.80;;
70426;SDS011;57872;55.432;37.248;2023-07-28T09:43:22;20.33;;;13.68;;
70426;SDS011;57872;55.432;37.248;2023-07-28T09:48:38;23.42;;;14.80;;
70426;SDS011;57872;55.432;37.248;2023-07-28T09:54:00;23.15;;;15.05;;
70426;SDS011;57872;55.432;37.248;2023-07-28T09:59:35;42.08;;;19.05;;
70426;SDS011;57872;55.432;37.248;2023-07-28T10:05:02;25.20;;;15.90;;
70426;SDS011;57872;55.432;37.248;2023-07-28T10:10:13;22.80;;;15.13;;
70426;SDS011;57872;55.432;37.248;2023-07-28T10:15:20;27.65;;;16.38;;
70426;SDS011;57872;55.432;37.248;2023-07-28T10:21:41;22.27;;;15.43;;
70426;SDS011;57872;55.432;37.248;2023-07-28T10:26:46;24.55;;;14.93;;
70426;SDS011;57872;55.432;37.248;2023-07-28T10:31:51;20.13;;;13.85;;
70426;SDS011;57872;55.432;37.248;2023-07-28T10:36:58;20.60;;;12.52;;
70426;SDS011;57872;55.432;37.248;2023-07-28T10:42:07;20.98;;;13.30;;
70426;SDS011;57872;55.432;37.248;2023-07-28T10:47:14;20.80;;;14.10;;
70426;SDS011;57872;55.432;37.248;2023-07-28T10:52:16;18.37;;;13.10;;
70426;SDS011;57872;55.432;37.248;2023-07-28T10:57:17;24.52;;;15.50;;
70426;SDS011;57872;55.432;37.248;2023-07-28T11:02:17;21.67;;;14.73;;
70426;SDS011;57872;55.432;37.248;2023-07-28T11:07:18;23.02;;;14.68;;
70426;SDS011;57872;55.432;37.248;2023-07-28T11:12:23;18.85;;;13.25;;
70426;SDS011;57872;55.432;37.248;2023-07-28T11:17:26;21.08;;;14.60;;
70426;SDS011;57872;55.432;37.248;2023-07-28T11:22:36;17.15;;;12.43;;
70426;SDS011;57872;55.432;37.248;2023-07-28T11:27:37;17.75;;;12.35;;
70426;SDS011;57872;55.432;37.248;2023-07-28T11:32:39;24.30;;;15.10;;
70426;SDS011;57872;55.432;37.248;2023-07-28T11:37:44;14.60;;;9.38;;
70426;SDS011;57872;55.432;37.248;2023-07-28T11:42:53;11.95;;;6.63;;
70426;SDS011;57872;55.432;37.248;2023-07-28T11:48:05;12.75;;;6.75;;
70426;SDS011;57872;55.432;37.248;2023-07-28T11:54:36;12.75;;;7.05;;
70426;SDS011;57872;55.432;37.248;2023-07-28T12:04:43;10.02;;;6.20;;
70426;SDS011;57872;55.432;37.248;2023-07-28T12:09:56;8.90;;;4.90;;
70426;SDS011;57872;55.432;37.248;2023-07-28T12:15:17;7.85;;;4.10;;
70426;SDS011;57872;55.432;37.248;2023-07-28T12:20:24;11.07;;;4.63;;
70426;SDS011;57872;55.432;37.248;2023-07-28T12:25:28;10.68;;;3.80;;
70426;SDS011;57872;55.432;37.248;2023-07-28T12:30:30;7.70;;;3.47;;
70426;SDS011;57872;55.432;37.248;2023-07-28T12:35:31;6.32;;;3.38;;
70426;SDS011;57872;55.432;37.248;2023-07-28T12:40:35;11.18;;;3.85;;
70426;SDS011;57872;55.432;37.248;2023-07-28T12:45:56;7.18;;;3.38;;
70426;SDS011;57872;55.432;37.248;2023-07-28T12:51:16;9.38;;;3.70;;
70426;SDS011;57872;55.432;37.248;2023-07-28T12:56:30;8.48;;;3.42;;
70426;SDS011;57872;55.432;37.248;2023-07-28T13:01:31;7.35;;;3.50;;
70426;SDS011;57872;55.432;37.248;2023-07-28T13:07:07;5.75;;;2.95;;
70426;SDS011;57872;55.432;37.248;2023-07-28T13:18:41;7.82;;;3.20;;
70426;SDS011;57872;55.432;37.248;2023-07-28T13:30:40;9.15;;;3.90;;
70426;SDS011;57872;55.432;37.248;2023-07-28T13:36:20;8.30;;;3.83;;
70426;SDS011;57872;55.432;37.248;2023-07-28T13:41:28;12.82;;;3.75;;
70426;SDS011;57872;55.432;37.248;2023-07-28T13:46:35;10.18;;;3.72;;
70426;SDS011;57872;55.432;37.248;2023-07-28T13:51:53;7.80;;;2.88;;
70426;SDS011;57872;55.432;37.248;2023-07-28T13:56:54;7.82;;;3.20;;
70426;SDS011;57872;55.432;37.248;2023-07-28T14:01:55;7.65;;;3.70;;
70426;SDS011;57872;55.432;37.248;2023-07-28T14:06:58;6.15;;;2.65;;
70426;SDS011;57872;55.432;37.248;2023-07-28T14:12:28;7.20;;;2.83;;
70426;SDS011;57872;55.432;37.248;2023-07-28T14:17:31;6.88;;;2.40;;
70426;SDS011;57872;55.432;37.248;2023-07-28T14:22:35;6.75;;;3.05;;
70426;SDS011;57872;55.432;37.248;2023-07-28T14:28:05;8.15;;;3.30;;
70426;SDS011;57872;55.432;37.248;2023-07-28T14:33:29;5.72;;;2.72;;
70426;SDS011;57872;55.432;37.248;2023-07-28T14:38:30;6.45;;;2.55;;
70426;SDS011;57872;55.432;37.248;2023-07-28T14:43:36;9.05;;;3.20;;
70426;SDS011;57872;55.432;37.248;2023-07-28T14:48:37;7.28;;;3.03;;
70426;SDS011;57872;55.432;37.248;2023-07-28T14:54:07;7.45;;;3.25;;
70426;SDS011;57872;55.432;37.248;2023-07-28T14:59:36;11.75;;;3.33;;
70426;SDS011;57872;55.432;37.248;2023-07-28T15:05:10;32.88;;;25.35;;
70426;SDS011;57872;55.432;37.248;2023-07-28T15:10:28;8.45;;;3.70;;
70426;SDS011;57872;55.432;37.248;2023-07-28T15:15:40;8.35;;;3.33;;
70426;SDS011;57872;55.432;37.248;2023-07-28T15:21:11;10.18;;;3.17;;
70426;SDS011;57872;55.432;37.248;2023-07-28T15:26:23;9.13;;;3.22;;
70426;SDS011;57872;55.432;37.248;2023-07-28T15:31:29;5.03;;;2.30;;
70426;SDS011;57872;55.432;37.248;2023-07-28T15:37:01;6.82;;;2.28;;
70426;SDS011;57872;55.432;37.248;2023-07-28T15:43:01;12.15;;;2.50;;
70426;SDS011;57872;55.432;37.248;2023-07-28T15:49:11;8.90;;;2.30;;
70426;SDS011;57872;55.432;37.248;2023-07-28T15:55:03;4.60;;;1.80;;
70426;SDS011;57872;55.432;37.248;2023-07-28T16:00:04;4.70;;;1.80;;
70426;SDS011;57872;55.432;37.248;2023-07-28T16:05:12;6.78;;;2.03;;
70426;SDS011;57872;55.432;37.248;2023-07-28T16:10:13;7.55;;;1.88;;
70426;SDS011;57872;55.432;37.248;2023-07-28T16:15:17;5.65;;;1.80;;
70426;SDS011;57872;55.432;37.248;2023-07-28T16:20:18;6.93;;;2.00;;
70426;SDS011;57872;55.432;37.248;2023-07-28T16:25:19;5.88;;;2.20;;
70426;SDS011;57872;55.432;37.248;2023-07-28T16:30:26;7.15;;;2.08;;
70426;SDS011;57872;55.432;37.248;2023-07-28T16:35:34;7.25;;;2.30;;
70426;SDS011;57872;55.432;37.248;2023-07-28T16:47:21;6.28;;;2.22;;
70426;SDS011;57872;55.432;37.248;2023-07-28T16:52:39;8.35;;;1.90;;
70426;SDS011;57872;55.432;37.248;2023-07-28T16:57:40;7.75;;;2.10;;
70426;SDS011;57872;55.432;37.248;2023-07-28T17:02:44;5.18;;;2.30;;
70426;SDS011;57872;55.432;37.248;2023-07-28T17:07:45;5.45;;;2.08;;
70426;SDS011;57872;55.432;37.248;2023-07-28T17:12:48;8.90;;;2.50;;
70426;SDS011;57872;55.432;37.248;2023-07-28T17:17:52;6.65;;;2.28;;
70426;SDS011;57872;55.432;37.248;2023-07-28T17:22:58;7.10;;;2.40;;
70426;SDS011;57872;55.432;37.248;2023-07-28T17:27:59;5.00;;;2.15;;
70426;SDS011;57872;55.432;37.248;2023-07-28T17:33:14;5.75;;;2.25;;
70426;SDS011;57872;55.432;37.248;2023-07-28T17:43:48;7.07;;;2.83;;
70426;SDS011;57872;55.432;37.248;2023-07-28T17:48:52;7.68;;;2.90;;
70426;SDS011;57872;55.432;37.248;2023-07-28T17:54:02;7.25;;;2.90;;
70426;SDS011;57872;55.432;37.248;2023-07-28T17:59:03;5.78;;;2.90;;
70426;SDS011;57872;55.432;37.248;2023-07-28T18:04:05;6.97;;;2.80;;
70426;SDS011;57872;55.432;37.248;2023-07-28T18:09:08;7.55;;;3.33;;
70426;SDS011;57872;55.432;37.248;2023-07-28T18:14:12;7.82;;;3.13;;
70426;SDS011;57872;55.432;37.248;2023-07-28T18:19:13;9.52;;;3.15;;
70426;SDS011;57872;55.432;37.248;2023-07-28T18:24:14;6.15;;;2.90;;
70426;SDS011;57872;55.432;37.248;2023-07-28T18:29:19;7.47;;;2.65;;
70426;SDS011;57872;55.432;37.248;2023-07-28T18:34:24;6.25;;;2.75;;
70426;SDS011;57872;55.432;37.248;2023-07-28T18:39:27;8.35;;;2.80;;
70426;SDS011;57872;55.432;37.248;2023-07-28T18:44:28;8.07;;;3.10;;
70426;SDS011;57872;55.432;37.248;2023-07-28T18:49:29;8.73;;;3.40;;
70426;SDS011;57872;55.432;37.248;2023-07-28T18:54:33;8.35;;;3.22;;
70426;SDS011;57872;55.432;37.248;2023-07-28T18:59:33;8.07;;;3.70;;
70426;SDS011;57872;55.432;37.248;2023-07-28T19:04:34;9.20;;;3.90;;
70426;SDS011;57872;55.432;37.248;2023-07-28T19:09:35;8.50;;;3.60;;
70426;SDS011;57872;55.432;37.248;2023-07-28T19:14:36;8.95;;;3.42;;
70426;SDS011;57872;55.432;37.248;2023-07-28T19:19:43;6.53;;;3.20;;
70426;SDS011;57872;55.432;37.248;2023-07-28T19:24:45;7.30;;;3.55;;
70426;SDS011;57872;55.432;37.248;2023-07-28T19:29:46;7.32;;;3.70;;
70426;SDS011;57872;55.432;37.248;2023-07-28T19:35:02;10.00;;;4.10;;
70426;SDS011;57872;55.432;37.248;2023-07-28T19:40:17;9.10;;;4.68;;
70426;SDS011;57872;55.432;37.248;2023-07-28T19:45:18;10.38;;;4.43;;
70426;SDS011;57872;55.432;37.248;2023-07-28T19:50:18;12.02;;;4.50;;
70426;SDS011;57872;55.432;37.248;2023-07-28T19:55:19;12.63;;;4.57;;
70426;SDS011;57872;55.432;37.248;2023-07-28T20:00:20;11.32;;;4.70;;
70426;SDS011;57872;55.432;37.248;2023-07-28T20:05:21;10.02;;;4.68;;
70426;SDS011;57872;55.432;37.248;2023-07-28T20:10:22;9.90;;;3.78;;
70426;SDS011;57872;55.432;37.248;2023-07-28T20:15:24;15.70;;;5.07;;
70426;SDS011;57872;55.432;37.248;2023-07-28T20:20:31;9.32;;;3.75;;
70426;SDS011;57872;55.432;37.248;2023-07-28T20:26:31;8.70;;;3.90;;
70426;SDS011;57872;55.432;37.248;2023-07-28T20:31:48;21.55;;;9.75;;
70426;SDS011;57872;55.432;37.248;2023-07-28T20:37:03;62.17;;;35.28;;
70426;SDS011;57872;55.432;37.248;2023-07-28T20:42:16;18.25;;;8.38;;
70426;SDS011;57872;55.432;37.248;2023-07-28T20:47:25;10.90;;;3.80;;
70426;SDS011;57872;55.432;37.248;2023-07-28T20:52:55;9.50;;;3.15;;
70426;SDS011;57872;55.432;37.248;2023-07-28T21:12:09;10.00;;;3.60;;
70426;SDS011;57872;55.432;37.248;2023-07-28T21:17:10;8.10;;;3.10;;
70426;SDS011;57872;55.432;37.248;2023-07-28T21:22:16;7.65;;;3.42;;
70426;SDS011;57872;55.432;37.248;2023-07-28T21:27:20;8.60;;;3.45;;
70426;SDS011;57872;55.432;37.248;2023-07-28T21:32:21;7.20;;;3.00;;
70426;SDS011;57872;55.432;37.248;2023-07-28T21:37:22;7.78;;;3.13;;
70426;SDS011;57872;55.432;37.248;2023-07-28T21:42:24;8.67;;;3.40;;
70426;SDS011;57872;55.432;37.248;2023-07-28T21:47:39;9.88;;;3.20;;
70426;SDS011;57872;55.432;37.248;2023-07-28T21:52:41;10.52;;;3.85;;
70426;SDS011;57872;55.432;37.248;2023-07-28T21:57:46;8.98;;;3.80;;
70426;SDS011;57872;55.432;37.248;2023-07-28T22:02:47;6.93;;;3.00;;
70426;SDS011;57872;55.432;37.248;2023-07-28T22:07:54;8.70;;;4.20;;
70426;SDS011;57872;55.432;37.248;2023-07-28T22:12:55;8.82;;;3.83;;
70426;SDS011;57872;55.432;37.248;2023-07-28T22:17:56;7.57;;;3.92;;
70426;SDS011;57872;55.432;37.248;2023-07-28T22:23:00;9.93;;;3.92;;
70426;SDS011;57872;55.432;37.248;2023-07-28T22:28:05;7.47;;;3.80;;
70426;SDS011;57872;55.432;37.248;2023-07-28T22:33:06;8.05;;;4.30;;
70426;SDS011;57872;55.432;37.248;2023-07-28T22:38:28;10.15;;;4.20;;
70426;SDS011;57872;55.432;37.248;2023-07-28T22:43:28;9.73;;;3.92;;
70426;SDS011;57872;55.432;37.248;2023-07-28T22:48:59;11.68;;;4.40;;
70426;SDS011;57872;55.432;37.248;2023-07-28T22:54:00;18.13;;;4.85;;
70426;SDS011;57872;55.432;37.248;2023-07-28T22:59:01;11.18;;;4.18;;
70426;SDS011;57872;55.432;37.248;2023-07-28T23:04:02;8.60;;;4.30;;
70426;SDS011;57872;55.432;37.248;2023-07-28T23:09:06;11.38;;;4.30;;
70426;SDS011;57872;55.432;37.248;2023-07-28T23:14:15;9.97;;;4.10;;
70426;SDS011;57872;55.432;37.248;2023-07-28T23:19:16;9.30;;;4.10;;
70426;SDS011;57872;55.432;37.248;2023-07-28T23:24:17;11.50;;;4.88;;
70426;SDS011;57872;55.432;37.248;2023-07-28T23:29:19;11.38;;;4.32;;
70426;SDS011;57872;55.432;37.248;2023-07-28T23:34:27;10.55;;;4.22;;
70426;SDS011;57872;55.432;37.248;2023-07-28T23:39:38;10.30;;;5.00;;
70426;SDS011;57872;55.432;37.248;2023-07-28T23:44:55;11.13;;;4.95;;
70426;SDS011;57872;55.432;37.248;2023-07-28T23:55:51;8.45;;;4.78;;
